Latest  Newer  Older  Last 2 hours animation  Current image  Latest image 
Rain/snow radar  Infrared sat images 
Real-time lightning map

All time is UTC (add 2 hours to UTC in wintertime, 3 hours to UTC in DST for Latvia local time)

2020/02/22 16:50 EVRA 221650Z 20018KT 9999 -SHRA BKN011CB OVC016 04/03 Q0992 R18/290195 NOSIG
2020/02/22 16:50 EVLA 221650Z AUTO 23032KT 9999 BKN009/// BKN016/// OVC024/// 06/05 Q0992
2020/02/22 16:50 EVVA 221650Z AUTO 24025G35KT 9999 -RA FEW009 SCT013 BKN019 06/06 Q0987 RERA
2020/02/22 16:50 EYKA 221650Z 22015KT 6000 -RA OVC013 04/01 Q1002 R08/290095
2020/02/22 16:50 EYPA 221650Z 23016G32KT 190V270 9999 BKN009 06/05 Q0995 R19/1///95
2020/02/22 16:50 EYSA 221650Z 20022G32KT 8000 -SHRA OVC008 FEW010CB 04/03 Q0997 R14L/29//95 R14R/29//95 GRN NOSIG
2020/02/22 16:50 EYVI 221650Z 20021KT 9000 -RA OVC024 03/02 Q1005 R19/2///95 NOSIG
2020/02/22 08:50 EEKA 220850Z 20016KT 160V240 9000 RA BKN009 OVC016 05/04 Q0995
2020/02/22 17:00 EEKE 221700Z AUTO 24018G28KT 210V270 ////NDV -RA BKN010 OVC020 05/04 Q0983
2020/02/22 13:50 EEPU 221350Z 19020G36KT 160V230 3600 -RA BR BKN008 OVC014 04/03 Q0991
2020/02/22 16:50 EETN 221650Z 20018KT 6000 RASN BKN007 OVC013 01/00 Q0981 R08/290195 TEMPO 20020G32KT 4000
2020/02/22 16:50 EETU 221650Z AUTO 19023G35KT 5000 -RA VV015 02/01 Q0988
   RIGA AIRPORT     EVRA               56 55N  023 58E   10   X     T          6 LV
   LIEPAJA INTL     EVLA        26406  56 31N  021 06E    4   X                8 LV
   VENTPILS         EVVA               57 21N  021 33E    6   X                8 LV
   KAUNAS           EYKA               54 54N  023 55E   77   X     T          6 LT
   PALANGA INTL     EYPA               55 55N  021 03E   10   X                6 LT
   SIAULIAI INTL    EYSA               55 54N  023 24E  135   X     T          6 LT
   VILNIUS INTL     EYVI        26730  54 38N  025 17E  197   X     T          6 LT
   KARDLA           EEKA        26116  58 59N  022 50E    4   X                8 EE
   KURESSAARE       EEKE               58 14N  022 31E    4   X                8 EE
   PARNU            EEPU               58 25N  024 28E   14   X                8 EE
   TALLINN          EETN        26038  59 24N  024 49E   40   X     T          8 EE
   TARTU            EETU               58 19N  026 41E   67   X                8 EE

cloud coverage image from sat24.com and METAR data from weather.noaa.gov